Flight Track Log - Related Links

Times and Time Zones

All times are in EDT time to prevent confusion due to time zone crossing. See the KLM1692 flight status page for this flight to view local times or setup timezone preferences in your user account.

Time Position Orientation Groundspeed Altitude Reporting Facility
EDT Latitude Longitude Course Direction KTS MPH feet Rate Location/Type
Wed 01:37:34 AM 38.8090 -9.1210 24° Northeast 162 186 1,900  Level FlightAware ADS-B
Wed 01:38:04 AM 38.8290 -9.1040 34° Northeast 170 196 3,100 2,143 Climbing FlightAware ADS-B
Wed 01:38:30 AM 38.8450 -9.0850 43° Northeast 203 234 3,900 1,500 Climbing FlightAware ADS-B
Wed 01:39:00 AM 38.8700 -9.0540 44° Northeast 269 310 4,500 2,143 Climbing FlightAware ADS-B
Wed 01:39:26 AM 38.8950 -9.0240 43° Northeast 279 321 5,900 3,150 Climbing FlightAware ADS-B
Wed 01:39:40 AM 38.9070 -9.0080 46° Northeast 284 327 6,600 3,409 Climbing FlightAware ADS-B
Wed 01:40:10 AM 38.9370 -8.9700 45° Northeast 294 338 8,400 3,720 Climbing FlightAware ADS-B
Wed 01:40:30 AM 38.9580 -8.9450 43° Northeast 292 336 9,700 2,585 Climbing FlightAware ADS-B
Wed 01:41:15 AM 39.0060 -8.8860 44° Northeast 342 394 11,200 2,519 Climbing FlightAware ADS-B
Wed 01:41:51 AM 39.0490 -8.8310 45° Northeast 362 417 13,100 3,120 Climbing FlightAware ADS-B
Wed 01:42:30 AM 39.0970 -8.7690 45° Northeast 370 426 15,100 3,000 Climbing FlightAware ADS-B
Wed 01:43:15 AM 39.1540 -8.6990 44° Northeast 388 447 17,300 2,894 Climbing FlightAware ADS-B
Wed 01:43:55 AM 39.2060 -8.6310 45° Northeast 391 450 19,200 2,775 Climbing FlightAware ADS-B
Wed 01:44:35 AM 39.2590 -8.5660 44° Northeast 405 466 21,000 2,089 Climbing FlightAware ADS-B
Wed 01:45:47 AM 39.3300 -8.4640 48° Northeast 423 487 23,100 2,286 Climbing FlightAware ADS-B
Wed 01:46:41 AM 39.4210 -8.3250 50° Northeast 435 501 25,800 2,545 Climbing FlightAware ADS-B
Wed 01:47:26 AM 39.4790 -8.2340 50° Northeast 443 510 27,300 1,800 Climbing FlightAware ADS-B
Wed 01:48:11 AM 39.5390 -8.1410 50° Northeast 453 521 28,500 1,624 Climbing FlightAware ADS-B
Wed 01:48:51 AM 39.5900 -8.0640 49° Northeast 457 526 29,600 1,650 Climbing FlightAware ADS-B
Wed 01:49:31 AM 39.6480 -7.9730 50° Northeast 462 532 30,700 1,482 Climbing FlightAware ADS-B
Wed 01:50:16 AM 39.7100 -7.8790 49° Northeast 467 537 31,700 1,188 Climbing FlightAware ADS-B
Wed 01:51:12 AM 39.7920 -7.7590 48° Northeast 471 542 32,700 1,517 Climbing FlightAware ADS-B
Wed 01:51:43 AM 39.8400 -7.7040 41° Northeast 453 521 33,900 2,053 Climbing FlightAware ADS-B
Wed 01:52:28 AM 39.9110 -7.6210 42° Northeast 446 513 35,300 1,835 Climbing FlightAware ADS-B
Wed 01:53:08 AM 39.9720 -7.5470 43° Northeast 440 506 36,500 1,680 Climbing FlightAware ADS-B
Wed 01:53:43 AM 40.0270 -7.4810 43° Northeast 440 506 37,400 1,280 Climbing FlightAware ADS-B
Wed 01:54:23 AM 40.0870 -7.4110 42° Northeast 437 503 38,100 907 Climbing FlightAware ADS-B
Wed 01:55:09 AM 40.1540 -7.3310 42° Northeast 441 507 38,700 750 Climbing FlightAware ADS-B
Wed 01:55:43 AM 40.2090 -7.2660 42° Northeast 445 512 39,100 720 Climbing FlightAware ADS-B
Wed 01:56:24 AM 40.2690 -7.1940 42° Northeast 447 514 39,600 635 Climbing FlightAware ADS-B
Wed 01:57:08 AM 40.3380 -7.1100 43° Northeast 447 514 40,000 286 Climbing FlightAware ADS-B
Wed 01:57:48 AM 40.4010 -7.0350 42° Northeast 441 507 40,000  Level FlightAware ADS-B
Wed 01:58:33 AM 40.4700 -6.9520 42° Northeast 443 510 40,000  Level FlightAware ADS-B
Wed 01:59:13 AM 40.5300 -6.8790 43° Northeast 443 510 40,000  Level FlightAware ADS-B
Wed 01:59:54 AM 40.5930 -6.8030 42° Northeast 444 511 40,000  Level FlightAware ADS-B
Wed 02:00:43 AM 40.6540 -6.7280 43° Northeast 444 511 40,000  Level FlightAware ADS-B
Wed 02:01:19 AM 40.7180 -6.6500 43° Northeast 445 512 40,000  Level FlightAware ADS-B
Wed 02:02:07 AM 40.7950 -6.5560 43° Northeast 446 513 40,000  Level FlightAware ADS-B
Wed 02:02:51 AM 40.8620 -6.4740 43° Northeast 449 517 40,000  Level FlightAware ADS-B
Wed 02:03:33 AM 40.9270 -6.3930 43° Northeast 452 520 40,000  Level FlightAware ADS-B
Wed 02:04:09 AM 40.9820 -6.3250 43° Northeast 453 521 40,000  Level FlightAware ADS-B
Wed 02:04:57 AM 41.0540 -6.2360 43° Northeast 453 521 40,000  Level FlightAware ADS-B
Wed 02:05:33 AM 41.1100 -6.1670 43° Northeast 454 522 40,000  Level FlightAware ADS-B
Wed 02:06:13 AM 41.1720 -6.0890 43° Northeast 456 525 40,000  Level FlightAware ADS-B
Wed 02:06:57 AM 41.2380 -6.0080 43° Northeast 456 525 40,000  Level FlightAware ADS-B
Wed 02:07:37 AM 41.3010 -5.9300 43° Northeast 456 525 40,000  Level FlightAware ADS-B
Wed 02:08:16 AM 41.3600 -5.8540 44° Northeast 456 525 40,000  Level FlightAware ADS-B
Wed 02:09:01 AM 41.4290 -5.7680 43° Northeast 456 525 40,000  Level FlightAware ADS-B
Wed 02:09:41 AM 41.4910 -5.6900 43° Northeast 456 525 40,000  Level FlightAware ADS-B
Wed 02:10:21 AM 41.5580 -5.6250 36° Northeast 450 518 40,000  Level FlightAware ADS-B
Wed 02:10:56 AM 41.6250 -5.5860 24° Northeast 449 517 40,000  Level FlightAware ADS-B
Wed 02:11:41 AM 41.7110 -5.5380 23° Northeast 449 517 40,000  Level FlightAware ADS-B
Wed 02:12:21 AM 41.7880 -5.4940 23° Northeast 449 517 40,000  Level FlightAware ADS-B
Wed 02:12:56 AM 41.8510 -5.4590 22° Northeast 449 517 40,000  Level FlightAware ADS-B
Wed 02:13:36 AM 41.9310 -5.4140 23° Northeast 449 517 40,000  Level FlightAware ADS-B
Wed 02:14:16 AM 42.0040 -5.3710 24° Northeast 449 517 40,000  Level FlightAware ADS-B
Wed 02:15:52 AM 42.1800 -5.2710 23° Northeast 450 518 40,000  Level FlightAware ADS-B
Wed 02:16:36 AM 42.2750 -5.2160 23° Northeast 448 516 40,000  Level FlightAware ADS-B
Wed 02:17:16 AM 42.3490 -5.1730 23° Northeast 448 516 40,000  Level FlightAware ADS-B
Wed 02:17:56 AM 42.4280 -5.1280 23° Northeast 446 513 40,000  Level FlightAware ADS-B
Wed 02:18:36 AM 42.5030 -5.0840 23° Northeast 445 512 40,000  Level FlightAware ADS-B
Wed 02:19:16 AM 42.5810 -5.0390 23° Northeast 443 510 40,000  Level FlightAware ADS-B
Wed 02:19:56 AM 42.6550 -4.9950 24° Northeast 441 507 40,000  Level FlightAware ADS-B
Wed 02:20:41 AM 42.7380 -4.9480 23° Northeast 441 507 40,000  Level FlightAware ADS-B
Wed 02:21:16 AM 42.8040 -4.9080 24° Northeast 441 507 40,000  Level FlightAware ADS-B
Wed 02:22:01 AM 42.8840 -4.8610 23° Northeast 441 507 40,000  Level FlightAware ADS-B
Wed 02:22:46 AM 42.9740 -4.8080 23° Northeast 442 509 40,000  Level FlightAware ADS-B
Wed 02:23:27 AM 43.0510 -4.7620 24° Northeast 443 510 40,000  Level FlightAware ADS-B
Wed 02:24:12 AM 43.1360 -4.7120 23° Northeast 444 511 40,000  Level FlightAware ADS-B
Wed 02:24:42 AM 43.1920 -4.6790 23° Northeast 444 511 40,000  Level FlightAware ADS-B
Wed 02:25:27 AM 43.2760 -4.6290 23° Northeast 444 511 40,000  Level FlightAware ADS-B
Wed 02:26:02 AM 43.3380 -4.5920 23° Northeast 443 510 40,000  Level FlightAware ADS-B
Wed 02:26:41 AM 43.4160 -4.5450 24° Northeast 444 511 40,000  Level FlightAware ADS-B
Wed 02:27:22 AM 43.4920 -4.4990 24° Northeast 444 511 40,000  Level FlightAware ADS-B
Wed 02:28:07 AM 43.5780 -4.4470 24° Northeast 444 511 40,000  Level FlightAware ADS-B
Wed 02:28:47 AM 43.6480 -4.4050 23° Northeast 445 512 40,000  Level FlightAware ADS-B
Wed 02:29:32 AM 43.7390 -4.3500 24° Northeast 445 512 40,000  Level FlightAware ADS-B
Wed 02:30:32 AM 43.8520 -4.2810 24° Northeast 446 513 40,000  Level FlightAware ADS-B
Wed 02:31:17 AM 43.9370 -4.2300 23° Northeast 446 513 40,000  Level FlightAware ADS-B
Wed 02:32:07 AM 44.0230 -4.1770 24° Northeast 446 513 40,000  Level FlightAware ADS-B
Wed 02:32:53 AM 44.1080 -4.1090 30° Northeast 450 518 40,000  Level FlightAware ADS-B
Wed 02:33:33 AM 44.1660 -4.0530 35° Northeast 450 518 40,000  Level FlightAware ADS-B
Wed 02:34:18 AM 44.2570 -3.9640 35° Northeast 449 517 40,000  Level FlightAware ADS-B
Wed 02:35:13 AM 44.3440 -3.8790 35° Northeast 448 516 40,000  Level FlightAware ADS-B
Wed 02:36:08 AM 44.4440 -3.7800 35° Northeast 447 514 40,000  Level FlightAware ADS-B
Wed 02:36:48 AM 44.5090 -3.7160 35° Northeast 447 514 40,000  Level FlightAware ADS-B
Wed 02:37:43 AM 44.5990 -3.6270 35° Northeast 449 517 40,000  Level FlightAware ADS-B
Wed 02:38:33 AM 44.6900 -3.5350 36° Northeast 450 518 40,000  Level FlightAware ADS-B
Wed 02:39:21 AM 44.7640 -3.4620 35° Northeast 452 520 40,000  Level FlightAware ADS-B
Wed 02:40:36 AM 44.8960 -3.3280 36° Northeast 453 521 40,000  Level FlightAware ADS-B
Wed 02:41:18 AM 44.9700 -3.2540 35° Northeast 453 521 40,000  Level FlightAware ADS-B
Wed 02:42:03 AM 45.0360 -3.1890 35° Northeast 454 522 40,000  Level FlightAware ADS-B
Wed 02:42:53 AM 45.1320 -3.0900 36° Northeast 452 520 40,000  Level FlightAware ADS-B
Wed 02:43:33 AM 45.1970 -3.0240 36° Northeast 452 520 40,000  Level FlightAware ADS-B
Wed 02:45:43 AM 45.4140 -2.8000 36° Northeast 451 519 40,000  Level FlightAware ADS-B
Wed 02:46:41 AM 45.5140 -2.6980 36° Northeast 444 511 40,000  Level FlightAware ADS-B
Wed 02:47:39 AM 45.6170 -2.5910 36° Northeast 449 517 40,000  Level FlightAware ADS-B
Wed 02:48:18 AM 45.6820 -2.5230 36° Northeast 450 518 40,000  Level FlightAware ADS-B
Wed 02:49:15 AM 45.7760 -2.4240 36° Northeast 450 518 40,000  Level FlightAware ADS-B
Wed 02:49:55 AM 45.8390 -2.3590 36° Northeast 450 518 40,000  Level FlightAware ADS-B
Wed 02:50:41 AM 45.9210 -2.2730 36° Northeast 444 511 40,000  Level FlightAware ADS-B
Wed 02:51:27 AM 46.0010 -2.1880 36° Northeast 450 518 40,000  Level FlightAware ADS-B
Wed 02:52:11 AM 46.0740 -2.1110 36° Northeast 450 518 40,000  Level FlightAware ADS-B
Wed 02:52:51 AM 46.1410 -2.0400 36° Northeast 451 519 40,000  Level FlightAware ADS-B
Wed 02:53:33 AM 46.2120 -1.9630 37° Northeast 451 519 40,000  Level FlightAware ADS-B
Wed 02:54:17 AM 46.2860 -1.8840 36° Northeast 451 519 40,000  Level FlightAware ADS-B
Wed 02:54:57 AM 46.3520 -1.8140 36° Northeast 450 518 40,000  Level FlightAware ADS-B
Wed 02:55:39 AM 46.4220 -1.7360 38° Northeast 450 518 40,000  Level FlightAware ADS-B
Wed 02:56:23 AM 46.4970 -1.6580 36° Northeast 447 514 40,000  Level FlightAware ADS-B
Wed 02:57:05 AM 46.5730 -1.6030 26° Northeast 446 513 40,000  Level FlightAware ADS-B
Wed 02:57:45 AM 46.6470 -1.5540 24° Northeast 448 516 40,000  Level FlightAware ADS-B
Wed 02:58:29 AM 46.7230 -1.4740 36° Northeast 450 518 40,000  Level FlightAware ADS-B
Wed 02:59:09 AM 46.7880 -1.4010 38° Northeast 450 518 40,000  Level FlightAware ADS-B
Wed 02:59:53 AM 46.8610 -1.3200 37° Northeast 450 518 40,000  Level FlightAware ADS-B
Wed 03:00:33 AM 46.9260 -1.2460 38° Northeast 450 518 40,000  Level FlightAware ADS-B
Wed 03:01:18 AM 47.0000 -1.1620 38° Northeast 449 517 40,000  Level FlightAware ADS-B
Wed 03:01:58 AM 47.0660 -1.0870 38° Northeast 448 516 40,000  Level FlightAware ADS-B
Wed 03:02:42 AM 47.1380 -1.0050 38° Northeast 448 516 40,000  Level FlightAware ADS-B
Wed 03:03:22 AM 47.2040 -0.9310 37° Northeast 449 517 40,000  Level FlightAware ADS-B
Wed 03:04:02 AM 47.2690 -0.8560 38° Northeast 448 516 40,000  Level FlightAware ADS-B
Wed 03:04:46 AM 47.3410 -0.7730 38° Northeast 447 514 40,000  Level FlightAware ADS-B
Wed 03:05:26 AM 47.4070 -0.6960 38° Northeast 447 514 40,000  Level FlightAware ADS-B
Wed 03:06:10 AM 47.4780 -0.6130 38° Northeast 445 512 40,000  Level FlightAware ADS-B
Wed 03:06:50 AM 47.5430 -0.5380 38° Northeast 444 511 40,000  Level FlightAware ADS-B
Wed 03:07:34 AM 47.6140 -0.4550 38° Northeast 443 510 40,000  Level FlightAware ADS-B
Wed 03:08:18 AM 47.6850 -0.3730 38° Northeast 441 507 40,000  Level FlightAware ADS-B
Wed 03:08:58 AM 47.7490 -0.2990 38° Northeast 441 507 40,000  Level FlightAware ADS-B
Wed 03:09:40 AM 47.8150 -0.2200 39° Northeast 439 505 40,000  Level FlightAware ADS-B
Wed 03:10:22 AM 47.8820 -0.1410 38° Northeast 439 505 40,000  Level FlightAware ADS-B
Wed 03:10:58 AM 47.9400 -0.0710 39° Northeast 439 505 40,000  Level FlightAware ADS-B
Wed 03:11:44 AM 48.0080 0.0100 39° Northeast 439 505 40,000  Level FlightAware ADS-B
Wed 03:12:26 AM 48.0780 0.0930 38° Northeast 439 505 40,000  Level FlightAware ADS-B
Wed 03:13:06 AM 48.1430 0.1690 38° Northeast 439 505 40,000  Level FlightAware ADS-B
Wed 03:13:50 AM 48.2100 0.2510 39° Northeast 438 504 40,000  Level FlightAware ADS-B
Wed 03:14:36 AM 48.2830 0.3400 39° Northeast 438 504 40,000  Level FlightAware ADS-B
Wed 03:14:56 AM 48.3170 0.3800 38° Northeast 438 504 40,000  Level FlightAware ADS-B
Wed 03:15:13 AM 48.3360 0.4030 39° Northeast 437 503 40,000  Level FlightAware ADS-B
Wed 03:15:54 AM 48.4080 0.4922 38° Northeast 454 522 40,000  Level FlightAware UK
Wed 03:16:30 AM 48.4645 0.5606 39° Northeast 448 516 40,000  Level FlightAware UK
Wed 03:17:06 AM 48.5209 0.6292 39° Northeast 446 513 40,000  Level FlightAware UK
Wed 03:17:09 AM 48.4990 0.6010 39° Northeast 434 499 40,000  Level FlightAware ADS-B
Wed 03:17:51 AM 48.5900 0.7120 39° Northeast 435 501 40,000  Level FlightAware ADS-B
Wed 03:18:33 AM 48.6540 0.7910 39° Northeast 436 502 40,000  Level FlightAware ADS-B
Wed 03:19:13 AM 48.7179 0.8721 39° Northeast 450 518 40,000  Level FlightAware UK
Wed 03:19:17 AM 48.7230 0.8760 39° Northeast 439 505 40,000  Level FlightAware ADS-B
Wed 03:19:49 AM 48.7743 0.9420 39° Northeast 450 518 40,000  Level FlightAware UK
Wed 03:19:56 AM 48.7820 0.9510 39° Northeast 440 506 40,000  Level FlightAware ADS-B
Wed 03:20:40 AM 48.8540 1.0410 39° Northeast 442 509 40,000  Level FlightAware ADS-B
Wed 03:21:19 AM 48.9161 1.1187 39° Northeast 450 518 40,000  Level FlightAware UK
Wed 03:21:19 AM 48.9150 1.1150 39° Northeast 442 509 40,000  Level FlightAware ADS-B
Wed 03:21:59 AM 48.9790 1.1960 40° Northeast 442 509 40,000  Level FlightAware ADS-B
Wed 03:22:31 AM 49.0301 1.2618 40° Northeast 454 522 40,000  Level FlightAware UK
Wed 03:22:37 AM 49.0390 1.2690 40° Northeast 443 510 40,000  Level FlightAware ADS-B
Wed 03:23:07 AM 49.0874 1.3344 40° Northeast 450 518 40,000  Level FlightAware UK
Wed 03:23:20 AM 49.1060 1.3550 40° Northeast 445 512 40,000  Level FlightAware ADS-B
Wed 03:24:03 AM 49.1740 1.4420 40° Northeast 445 512 40,000  Level FlightAware ADS-B
Wed 03:24:37 AM 49.2300 1.5152 40° Northeast 456 525 40,000  Level FlightAware UK
Wed 03:24:45 AM 49.2420 1.5280 40° Northeast 445 512 40,000  Level FlightAware ADS-B
Wed 03:25:25 AM 49.3030 1.6130 42° Northeast 446 513 40,000  Level FlightAware ADS-B
Wed 03:25:55 AM 49.3485 1.6826 42° Northeast 454 522 40,000  Level FlightAware UK
Wed 03:26:11 AM 49.3730 1.7130 42° Northeast 444 511 40,000  Level FlightAware ADS-B
Wed 03:26:51 AM 49.4380 1.7830 35° Northeast 442 509 40,000  Level FlightAware ADS-B
Wed 03:27:31 AM 49.5082 1.8569 35° Northeast 452 520 40,000  Level FlightAware UK
Wed 03:27:37 AM 49.5180 1.8640 35° Northeast 441 507 40,000  Level FlightAware ADS-B
Wed 03:28:07 AM 49.5699 1.9185 35° Northeast 452 520 40,000  Level FlightAware UK
Wed 03:28:15 AM 49.5810 1.9270 35° Northeast 440 506 40,000  Level FlightAware ADS-B
Wed 03:28:56 AM 49.6530 1.9990 33° Northeast 439 505 40,000 -279 Level FlightAware ADS-B
Wed 03:29:41 AM 49.7250 2.0710 33° Northeast 438 504 39,600 -750 Descending FlightAware ADS-B
Wed 03:30:16 AM 49.7870 2.1350 33° Northeast 425 489 39,000 -1,105 Descending FlightAware ADS-B
Wed 03:30:19 AM 49.7934 2.1433 33° Northeast 442 509 38,900 -1,273 Descending FlightAware UK
Wed 03:30:49 AM 49.8432 2.1934 33° Northeast 446 513 38,300 -1,000 Descending FlightAware UK
Wed 03:30:55 AM 49.8520 2.2000 33° Northeast 423 487 38,300 -875 Level FlightAware ADS-B
Wed 03:31:37 AM 49.9210 2.2727 33° Northeast 442 509 37,600 -955 Descending FlightAware UK
Wed 03:31:39 AM 49.9220 2.2720 33° Northeast 419 482 37,600 -1,000 Level FlightAware ADS-B
Wed 03:32:13 AM 49.9795 2.3326 33° Northeast 446 513 37,000 -857 Descending FlightAware UK
Wed 03:32:21 AM 49.9890 2.3410 33° Northeast 418 481 37,000 -1,000 Level FlightAware ADS-B
Wed 03:32:55 AM 50.0475 2.4016 33° Northeast 444 511 36,300 -1,059 Descending FlightAware UK
Wed 03:32:55 AM 50.0460 2.3980 33° Northeast 419 482 36,400 -409 Climbing FlightAware ADS-B
Wed 03:33:39 AM 50.1130 2.4670 33° Northeast 424 488 36,000 -643 Descending FlightAware ADS-B
Wed 03:34:19 AM 50.1820 2.5380 33° Northeast 422 486 35,500 -789 Descending FlightAware ADS-B
Wed 03:34:55 AM 50.2420 2.6000 33° Northeast 419 482 35,000 -917 Descending FlightAware ADS-B
Wed 03:35:31 AM 50.3012 2.6631 33° Northeast 440 506 34,400 -1,000 Descending FlightAware UK
Wed 03:35:37 AM 50.3100 2.6710 33° Northeast 419 482 34,300 -1,043 Descending FlightAware ADS-B
Wed 03:36:17 AM 50.3730 2.7370 34° Northeast 411 473 33,600 -1,024 Descending FlightAware ADS-B
Wed 03:36:59 AM 50.4380 2.8050 34° Northeast 408 470 32,900 -966 Descending FlightAware ADS-B
Wed 03:37:44 AM 50.5090 2.8800 34° Northeast 405 466 32,200 -1,125 Descending FlightAware ADS-B
Wed 03:38:19 AM 50.5649 2.9392 34° Northeast 420 483 31,400 -1,256 Descending FlightAware UK
Wed 03:38:27 AM 50.5740 2.9480 34° Northeast 397 457 31,300 -1,565 Descending FlightAware ADS-B
Wed 03:39:05 AM 50.6330 3.0100 34° Northeast 387 445 30,200 -1,650 Descending FlightAware ADS-B
Wed 03:39:47 AM 50.6950 3.0750 34° Northeast 383 441 29,100 -1,636 Descending FlightAware ADS-B
Wed 03:39:49 AM 50.6999 3.0816 34° Northeast 406 467 29,000 -1,737 Descending FlightAware UK
Wed 03:40:25 AM 50.7520 3.1368 34° Northeast 398 458 28,000 -1,500 Descending FlightAware UK
Wed 03:40:25 AM 50.7500 3.1340 34° Northeast 378 435 28,100 -1,667 Climbing FlightAware ADS-B
Wed 03:41:01 AM 50.8043 3.1924 34° Northeast 394 453 27,000 -1,529 Descending FlightAware UK
Wed 03:41:16 AM 50.8190 3.2080 34° Northeast 374 430 26,800 -1,418 Descending FlightAware ADS-B
Wed 03:41:56 AM 50.8780 3.2700 34° Northeast 368 423 25,700 -1,575 Descending FlightAware ADS-B
Wed 03:42:36 AM 50.9300 3.3250 34° Northeast 358 412 24,700 -1,756 Descending FlightAware ADS-B
Wed 03:42:37 AM 50.9399 3.3373 34° Northeast 384 442 24,500 -750 Descending FlightAware UK
Wed 03:43:16 AM 50.9910 3.3920 35° Northeast 401 461 24,200 -684 Descending FlightAware ADS-B
Wed 03:43:56 AM 51.0510 3.4560 34° Northeast 406 467 23,600 -900 Descending FlightAware ADS-B
Wed 03:44:36 AM 51.1190 3.5120 27° Northeast 406 467 23,000 -975 Descending FlightAware ADS-B
Wed 03:45:16 AM 51.1900 3.5660 25° Northeast 399 459 22,300 -1,050 Descending FlightAware ADS-B
Wed 03:45:56 AM 51.2570 3.6180 26° Northeast 394 453 21,600 -988 Descending FlightAware ADS-B
Wed 03:46:41 AM 51.3270 3.6710 25° Northeast 393 452 20,900 -1,000 Descending FlightAware ADS-B
Wed 03:47:26 AM 51.4010 3.7290 26° Northeast 386 444 20,100 -1,059 Descending FlightAware ADS-B
Wed 03:48:06 AM 51.4640 3.7790 26° Northeast 382 440 19,400 -1,040 Descending FlightAware ADS-B
Wed 03:48:41 AM 51.5200 3.8220 26° Northeast 383 441 18,800 -1,233 Descending FlightAware ADS-B
Wed 03:49:19 AM 51.5873 3.8753 26° Northeast 374 430 17,900 -1,600 Descending FlightAware UK
Wed 03:49:26 AM 51.5950 3.8800 26° Northeast 358 412 17,600 -2,170 Descending FlightAware ADS-B
Wed 03:50:06 AM 51.6530 3.9260 26° Northeast 348 400 16,200 -1,902 Descending FlightAware ADS-B
Wed 03:50:48 AM 51.7110 3.9720 26° Northeast 332 382 15,000 -2,071 Descending FlightAware ADS-B
Wed 03:51:30 AM 51.7710 4.0190 26° Northeast 328 377 13,300 -2,400 Descending FlightAware ADS-B
Wed 03:52:08 AM 51.8210 4.0600 27° Northeast 329 379 11,800 -2,143 Descending FlightAware ADS-B
Wed 03:52:54 AM 51.8820 4.1080 26° Northeast 317 365 10,300 -1,543 Descending FlightAware ADS-B
Wed 03:53:18 AM 51.9140 4.1350 27° Northeast 298 343 10,000 -900 Descending FlightAware ADS-B
Wed 03:53:34 AM 51.9300 4.1570 40° Northeast 290 334 9,700 -1,227 Descending FlightAware ADS-B
Wed 03:54:02 AM 51.9580 4.1950 40° Northeast 281 323 9,100 -1,286 Descending FlightAware ADS-B
Wed 03:54:16 AM 51.9710 4.2130 40° Northeast 279 321 8,800 -1,429 Descending FlightAware ADS-B
Wed 03:54:44 AM 51.9980 4.2510 41° Northeast 274 315 8,100 -1,467 Descending FlightAware ADS-B
Wed 03:55:01 AM 52.0130 4.2710 39° Northeast 273 314 7,700 -1,867 Descending FlightAware ADS-B
Wed 03:55:29 AM 52.0430 4.3120 40° Northeast 275 316 6,700 -1,862 Descending FlightAware ADS-B
Wed 03:55:59 AM 52.0730 4.3520 39° Northeast 273 314 5,900 -1,552 Descending FlightAware ADS-B
Wed 03:56:27 AM 52.1000 4.3880 39° Northeast 267 307 5,200 -1,500 Descending FlightAware ADS-B
Wed 03:56:55 AM 52.1260 4.4240 40° Northeast 266 306 4,500 -1,615 Descending FlightAware ADS-B
Wed 03:57:19 AM 52.1490 4.4530 38° Northeast 263 303 3,800 -1,375 Descending FlightAware ADS-B
Wed 03:57:43 AM 52.1710 4.4850 42° Northeast 254 292 3,400 -588 Descending FlightAware ADS-B
Wed 03:58:10 AM 52.1940 4.5170 40° Northeast 228 262 3,300 -462 Descending FlightAware ADS-B
Wed 03:58:22 AM 52.2030 4.5300 42° Northeast 211 243 3,100 -1,463 Descending FlightAware ADS-B
Wed 03:58:51 AM 52.2210 4.5610 47° Northeast 196 226 2,300 -1,615 Descending FlightAware ADS-B
Wed 03:59:14 AM 52.2330 4.5900 56° Northeast 180 207 1,700 -1,176 Descending FlightAware ADS-B
Wed 03:59:42 AM 52.2440 4.6210 60° Northeast 165 190 1,300 -750 Descending FlightAware ADS-B
Wed 04:00:10 AM 52.2550 4.6500 58° Northeast 152 175 1,000 -750 Descending FlightAware ADS-B
Wed 04:00:38 AM 52.2660 4.6760 55° Northeast 145 167 600 -792 Descending FlightAware ADS-B
Wed 04:01:03 AM 52.2750 4.7000 58° Northeast 140 161 300 -720 Descending FlightAware ADS-B
Wed 04:01:31 AM 52.2840 4.7250 60° Northeast 143 165 -643 Descending FlightAware ADS-B
Wed 04:02:01 AM 52.2950 4.7510 55° Northeast 110 127  Level FlightAware ADS-B
Wed 04:02:29 AM 52.3000 4.7640 58° Northeast 34 39  Level FlightAware ADS-B
Wed 04:02:45 AM 52.3010 4.7660 51° Northeast 22 25  Level FlightAware ADS-B
Wed 04:03:10 AM 52.3030 4.7680 31° Northeast 16 18  Level FlightAware ADS-B
Wed 04:03:40 AM 52.3040 4.7710 61° Northeast 18 21  Level FlightAware ADS-B
Wed 04:04:03 AM 52.3050 4.7740 61° Northeast 19 22  Level FlightAware ADS-B
Wed 04:04:17 AM 52.3060 4.7750 31° Northeast 20 23  Level FlightAware ADS-B
Wed 04:04:37 AM 52.3070 4.7750 360° North 23 26  Level FlightAware ADS-B
Wed 04:04:58 AM 52.3080 4.7750 360° North 26 30  Level FlightAware ADS-B
Wed 04:05:20 AM 52.3090 4.7750 360° North 21 24  Level FlightAware ADS-B
Wed 04:08:00 AM 52.3086 4.7639 267° West  Level Estimated
Wed 04:09:00 AM 52.3086 4.7639 348° North  Level Estimated
Wed 04:09:13 AM 52.3100 4.7750 348° North 13 15  Level FlightAware ADS-B
Wed 04:09:41 AM 52.3110 4.7750 360° North 25 29  Level FlightAware ADS-B
Wed 04:09:56 AM 52.3110 4.7730 270° West 28 32  Level FlightAware ADS-B
Wed 04:10:23 AM 52.3110 4.7690 270° West 28 32  Level FlightAware ADS-B
Wed 04:13:00 AM 52.3086 4.7639 233° Southwest  Level Estimated

Login

Don't have an account? Register now (free) for customized features, flight alerts, and more!